sensor_id;sensor_type;location;lat;lon;timestamp;P1;durP1;ratioP1;P2;durP2;ratioP2
43670;SDS011;29267;50.906;7.248;2023-04-26T00:01:41;7.03;;;3.55;;
43670;SDS011;29267;50.906;7.248;2023-04-26T00:04:08;6.43;;;1.88;;
43670;SDS011;29267;50.906;7.248;2023-04-26T00:06:33;10.13;;;2.42;;
43670;SDS011;29267;50.906;7.248;2023-04-26T00:08:59;4.10;;;1.92;;
43670;SDS011;29267;50.906;7.248;2023-04-26T00:11:25;10.13;;;2.40;;
43670;SDS011;29267;50.906;7.248;2023-04-26T00:13:50;10.75;;;3.55;;
43670;SDS011;29267;50.906;7.248;2023-04-26T00:16:16;7.85;;;2.63;;
43670;SDS011;29267;50.906;7.248;2023-04-26T00:18:42;9.70;;;2.40;;
43670;SDS011;29267;50.906;7.248;2023-04-26T00:21:10;6.20;;;2.33;;
43670;SDS011;29267;50.906;7.248;2023-04-26T00:23:36;7.78;;;2.38;;
43670;SDS011;29267;50.906;7.248;2023-04-26T00:26:02;8.85;;;2.33;;
43670;SDS011;29267;50.906;7.248;2023-04-26T00:28:28;4.80;;;2.15;;
43670;SDS011;29267;50.906;7.248;2023-04-26T00:30:53;9.23;;;2.15;;
43670;SDS011;29267;50.906;7.248;2023-04-26T00:33:21;5.68;;;2.00;;
43670;SDS011;29267;50.906;7.248;2023-04-26T00:35:47;4.90;;;1.83;;
43670;SDS011;29267;50.906;7.248;2023-04-26T00:38:14;5.95;;;1.92;;
43670;SDS011;29267;50.906;7.248;2023-04-26T00:40:39;9.15;;;2.03;;
43670;SDS011;29267;50.906;7.248;2023-04-26T00:43:05;5.60;;;2.78;;
43670;SDS011;29267;50.906;7.248;2023-04-26T00:45:37;11.32;;;2.53;;
43670;SDS011;29267;50.906;7.248;2023-04-26T00:48:03;8.60;;;1.50;;
43670;SDS011;29267;50.906;7.248;2023-04-26T00:50:29;8.95;;;3.10;;
43670;SDS011;29267;50.906;7.248;2023-04-26T00:52:56;5.88;;;2.72;;
43670;SDS011;29267;50.906;7.248;2023-04-26T00:55:22;7.90;;;2.38;;
43670;SDS011;29267;50.906;7.248;2023-04-26T00:57:50;16.55;;;2.70;;
43670;SDS011;29267;50.906;7.248;2023-04-26T01:00:16;5.85;;;3.03;;
43670;SDS011;29267;50.906;7.248;2023-04-26T01:02:42;8.52;;;3.80;;
43670;SDS011;29267;50.906;7.248;2023-04-26T01:05:08;12.73;;;3.60;;
43670;SDS011;29267;50.906;7.248;2023-04-26T01:07:35;8.13;;;3.03;;
43670;SDS011;29267;50.906;7.248;2023-04-26T01:10:04;8.98;;;2.78;;
43670;SDS011;29267;50.906;7.248;2023-04-26T01:12:31;13.75;;;3.15;;
43670;SDS011;29267;50.906;7.248;2023-04-26T01:15:01;11.18;;;2.83;;
43670;SDS011;29267;50.906;7.248;2023-04-26T01:17:27;12.25;;;2.53;;
43670;SDS011;29267;50.906;7.248;2023-04-26T01:19:53;6.28;;;2.65;;
43670;SDS011;29267;50.906;7.248;2023-04-26T01:22:19;7.75;;;2.55;;
43670;SDS011;29267;50.906;7.248;2023-04-26T01:24:45;8.70;;;2.42;;
43670;SDS011;29267;50.906;7.248;2023-04-26T01:27:14;6.45;;;2.53;;
43670;SDS011;29267;50.906;7.248;2023-04-26T01:29:40;12.30;;;2.30;;
43670;SDS011;29267;50.906;7.248;2023-04-26T01:32:06;6.82;;;2.60;;
43670;SDS011;29267;50.906;7.248;2023-04-26T01:34:32;7.47;;;3.30;;
43670;SDS011;29267;50.906;7.248;2023-04-26T01:36:58;10.38;;;2.22;;
43670;SDS011;29267;50.906;7.248;2023-04-26T01:39:27;7.28;;;2.40;;
43670;SDS011;29267;50.906;7.248;2023-04-26T01:41:53;14.02;;;2.78;;
43670;SDS011;29267;50.906;7.248;2023-04-26T01:44:22;8.95;;;2.80;;
43670;SDS011;29267;50.906;7.248;2023-04-26T01:46:48;10.20;;;2.45;;
43670;SDS011;29267;50.906;7.248;2023-04-26T01:49:13;9.60;;;2.95;;
43670;SDS011;29267;50.906;7.248;2023-04-26T01:51:39;5.28;;;2.45;;
43670;SDS011;29267;50.906;7.248;2023-04-26T01:54:05;4.82;;;2.72;;
43670;SDS011;29267;50.906;7.248;2023-04-26T01:56:31;10.00;;;2.17;;
43670;SDS011;29267;50.906;7.248;2023-04-26T01:58:56;6.85;;;2.45;;
43670;SDS011;29267;50.906;7.248;2023-04-26T02:01:23;9.80;;;2.97;;
43670;SDS011;29267;50.906;7.248;2023-04-26T02:03:48;8.02;;;2.22;;
43670;SDS011;29267;50.906;7.248;2023-04-26T02:06:14;4.38;;;2.22;;
43670;SDS011;29267;50.906;7.248;2023-04-26T02:08:40;8.27;;;2.50;;
43670;SDS011;29267;50.906;7.248;2023-04-26T02:11:05;7.97;;;2.50;;
43670;SDS011;29267;50.906;7.248;2023-04-26T02:13:31;9.38;;;2.75;;
43670;SDS011;29267;50.906;7.248;2023-04-26T02:15:57;8.23;;;2.72;;
43670;SDS011;29267;50.906;7.248;2023-04-26T02:18:23;7.72;;;2.30;;
43670;SDS011;29267;50.906;7.248;2023-04-26T02:20:49;7.40;;;3.13;;
43670;SDS011;29267;50.906;7.248;2023-04-26T02:23:14;9.43;;;3.30;;
43670;SDS011;29267;50.906;7.248;2023-04-26T02:25:40;5.53;;;2.63;;
43670;SDS011;29267;50.906;7.248;2023-04-26T02:28:09;11.20;;;2.92;;
43670;SDS011;29267;50.906;7.248;2023-04-26T02:30:34;5.97;;;2.55;;
43670;SDS011;29267;50.906;7.248;2023-04-26T02:33:00;8.93;;;3.10;;
43670;SDS011;29267;50.906;7.248;2023-04-26T02:35:26;6.07;;;3.20;;
43670;SDS011;29267;50.906;7.248;2023-04-26T02:37:51;7.88;;;3.03;;
43670;SDS011;29267;50.906;7.248;2023-04-26T02:40:17;12.48;;;3.80;;
43670;SDS011;29267;50.906;7.248;2023-04-26T02:42:43;14.32;;;3.10;;
43670;SDS011;29267;50.906;7.248;2023-04-26T02:45:09;11.32;;;3.00;;
43670;SDS011;29267;50.906;7.248;2023-04-26T02:47:35;8.57;;;3.53;;
43670;SDS011;29267;50.906;7.248;2023-04-26T02:50:02;15.95;;;3.35;;
43670;SDS011;29267;50.906;7.248;2023-04-26T02:52:32;7.35;;;2.67;;
43670;SDS011;29267;50.906;7.248;2023-04-26T02:54:58;8.32;;;2.70;;
43670;SDS011;29267;50.906;7.248;2023-04-26T02:57:24;10.88;;;3.08;;
43670;SDS011;29267;50.906;7.248;2023-04-26T02:59:50;10.10;;;2.97;;
43670;SDS011;29267;50.906;7.248;2023-04-26T03:02:16;9.65;;;2.85;;
43670;SDS011;29267;50.906;7.248;2023-04-26T03:04:42;6.70;;;3.42;;
43670;SDS011;29267;50.906;7.248;2023-04-26T03:07:07;6.60;;;2.55;;
43670;SDS011;29267;50.906;7.248;2023-04-26T03:09:33;8.30;;;3.10;;
43670;SDS011;29267;50.906;7.248;2023-04-26T03:11:58;9.98;;;3.22;;
43670;SDS011;29267;50.906;7.248;2023-04-26T03:14:24;10.15;;;3.50;;
43670;SDS011;29267;50.906;7.248;2023-04-26T03:16:51;6.18;;;3.03;;
43670;SDS011;29267;50.906;7.248;2023-04-26T03:19:17;10.43;;;2.70;;
43670;SDS011;29267;50.906;7.248;2023-04-26T03:21:43;9.60;;;3.58;;
43670;SDS011;29267;50.906;7.248;2023-04-26T03:24:08;11.50;;;3.80;;
43670;SDS011;29267;50.906;7.248;2023-04-26T03:26:35;8.70;;;3.83;;
43670;SDS011;29267;50.906;7.248;2023-04-26T03:29:01;6.63;;;3.05;;
43670;SDS011;29267;50.906;7.248;2023-04-26T03:31:28;9.48;;;4.07;;
43670;SDS011;29267;50.906;7.248;2023-04-26T03:33:53;10.33;;;3.33;;
43670;SDS011;29267;50.906;7.248;2023-04-26T03:36:19;5.47;;;2.90;;
43670;SDS011;29267;50.906;7.248;2023-04-26T03:38:44;16.42;;;3.45;;
43670;SDS011;29267;50.906;7.248;2023-04-26T03:41:10;6.82;;;3.10;;
43670;SDS011;29267;50.906;7.248;2023-04-26T03:43:36;10.05;;;3.65;;
43670;SDS011;29267;50.906;7.248;2023-04-26T03:46:02;8.23;;;3.55;;
43670;SDS011;29267;50.906;7.248;2023-04-26T03:48:28;8.45;;;3.63;;
43670;SDS011;29267;50.906;7.248;2023-04-26T03:50:53;9.13;;;3.20;;
43670;SDS011;29267;50.906;7.248;2023-04-26T03:53:19;10.82;;;3.47;;
43670;SDS011;29267;50.906;7.248;2023-04-26T03:55:44;8.00;;;2.90;;
43670;SDS011;29267;50.906;7.248;2023-04-26T03:58:10;6.53;;;3.00;;
43670;SDS011;29267;50.906;7.248;2023-04-26T04:00:36;6.85;;;2.97;;
43670;SDS011;29267;50.906;7.248;2023-04-26T04:03:03;10.50;;;3.47;;
43670;SDS011;29267;50.906;7.248;2023-04-26T04:05:29;9.75;;;3.30;;
43670;SDS011;29267;50.906;7.248;2023-04-26T04:07:54;8.82;;;3.78;;
43670;SDS011;29267;50.906;7.248;2023-04-26T04:10:21;12.00;;;3.38;;
43670;SDS011;29267;50.906;7.248;2023-04-26T04:12:47;17.67;;;3.53;;
43670;SDS011;29267;50.906;7.248;2023-04-26T04:15:13;12.23;;;3.57;;
43670;SDS011;29267;50.906;7.248;2023-04-26T04:17:40;9.83;;;5.33;;
43670;SDS011;29267;50.906;7.248;2023-04-26T04:20:06;15.47;;;5.20;;
43670;SDS011;29267;50.906;7.248;2023-04-26T04:22:32;17.10;;;6.07;;
43670;SDS011;29267;50.906;7.248;2023-04-26T04:24:57;14.00;;;6.00;;
43670;SDS011;29267;50.906;7.248;2023-04-26T04:27:24;13.87;;;6.53;;
43670;SDS011;29267;50.906;7.248;2023-04-26T04:29:50;5.55;;;3.30;;
43670;SDS011;29267;50.906;7.248;2023-04-26T04:32:15;9.35;;;3.35;;
43670;SDS011;29267;50.906;7.248;2023-04-26T04:34:41;9.13;;;3.27;;
43670;SDS011;29267;50.906;7.248;2023-04-26T04:37:08;5.00;;;2.63;;
43670;SDS011;29267;50.906;7.248;2023-04-26T04:39:33;7.70;;;3.35;;
43670;SDS011;29267;50.906;7.248;2023-04-26T04:41:59;10.43;;;5.00;;
43670;SDS011;29267;50.906;7.248;2023-04-26T04:44:25;9.40;;;3.47;;
43670;SDS011;29267;50.906;7.248;2023-04-26T04:46:51;10.97;;;3.90;;
43670;SDS011;29267;50.906;7.248;2023-04-26T04:49:16;9.45;;;4.68;;
43670;SDS011;29267;50.906;7.248;2023-04-26T04:51:43;10.45;;;4.22;;
43670;SDS011;29267;50.906;7.248;2023-04-26T04:54:12;13.38;;;6.70;;
43670;SDS011;29267;50.906;7.248;2023-04-26T04:56:39;31.02;;;8.88;;
43670;SDS011;29267;50.906;7.248;2023-04-26T04:59:05;19.65;;;7.97;;
43670;SDS011;29267;50.906;7.248;2023-04-26T05:01:32;18.80;;;6.25;;
43670;SDS011;29267;50.906;7.248;2023-04-26T05:03:58;17.85;;;5.78;;
43670;SDS011;29267;50.906;7.248;2023-04-26T05:06:25;16.05;;;4.45;;
43670;SDS011;29267;50.906;7.248;2023-04-26T05:08:52;11.55;;;3.58;;
43670;SDS011;29267;50.906;7.248;2023-04-26T05:11:18;11.80;;;3.17;;
43670;SDS011;29267;50.906;7.248;2023-04-26T05:13:44;11.48;;;2.65;;
43670;SDS011;29267;50.906;7.248;2023-04-26T05:16:10;11.57;;;3.03;;
43670;SDS011;29267;50.906;7.248;2023-04-26T05:18:36;6.05;;;2.47;;
43670;SDS011;29267;50.906;7.248;2023-04-26T05:21:02;14.57;;;3.63;;
43670;SDS011;29267;50.906;7.248;2023-04-26T05:23:28;24.27;;;7.70;;
43670;SDS011;29267;50.906;7.248;2023-04-26T05:25:53;15.63;;;5.82;;
43670;SDS011;29267;50.906;7.248;2023-04-26T05:28:19;23.58;;;5.13;;
43670;SDS011;29267;50.906;7.248;2023-04-26T05:30:45;13.27;;;5.63;;
43670;SDS011;29267;50.906;7.248;2023-04-26T05:33:10;25.25;;;11.02;;
43670;SDS011;29267;50.906;7.248;2023-04-26T05:35:36;47.05;;;22.13;;
43670;SDS011;29267;50.906;7.248;2023-04-26T05:38:02;24.10;;;12.40;;
43670;SDS011;29267;50.906;7.248;2023-04-26T05:40:27;21.40;;;8.82;;
43670;SDS011;29267;50.906;7.248;2023-04-26T05:42:53;14.20;;;6.93;;
43670;SDS011;29267;50.906;7.248;2023-04-26T05:45:19;9.75;;;6.40;;
43670;SDS011;29267;50.906;7.248;2023-04-26T05:47:45;10.45;;;4.30;;
43670;SDS011;29267;50.906;7.248;2023-04-26T05:50:11;6.93;;;2.50;;
43670;SDS011;29267;50.906;7.248;2023-04-26T05:52:37;5.95;;;2.33;;
43670;SDS011;29267;50.906;7.248;2023-04-26T05:55:02;4.78;;;2.40;;
43670;SDS011;29267;50.906;7.248;2023-04-26T05:57:29;5.28;;;2.67;;
43670;SDS011;29267;50.906;7.248;2023-04-26T05:59:55;5.55;;;2.42;;
43670;SDS011;29267;50.906;7.248;2023-04-26T06:02:21;5.05;;;2.70;;
43670;SDS011;29267;50.906;7.248;2023-04-26T06:04:46;7.85;;;2.50;;
43670;SDS011;29267;50.906;7.248;2023-04-26T06:07:12;5.47;;;2.38;;
43670;SDS011;29267;50.906;7.248;2023-04-26T06:09:38;6.07;;;2.67;;
43670;SDS011;29267;50.906;7.248;2023-04-26T06:12:04;5.65;;;2.45;;
43670;SDS011;29267;50.906;7.248;2023-04-26T06:14:29;6.28;;;2.15;;
43670;SDS011;29267;50.906;7.248;2023-04-26T06:16:55;7.35;;;2.40;;
43670;SDS011;29267;50.906;7.248;2023-04-26T06:19:21;6.35;;;2.22;;
43670;SDS011;29267;50.906;7.248;2023-04-26T06:21:47;5.47;;;2.15;;
43670;SDS011;29267;50.906;7.248;2023-04-26T06:24:13;8.45;;;2.58;;
43670;SDS011;29267;50.906;7.248;2023-04-26T06:26:39;4.53;;;2.22;;
43670;SDS011;29267;50.906;7.248;2023-04-26T06:29:05;4.70;;;1.98;;
43670;SDS011;29267;50.906;7.248;2023-04-26T06:31:31;4.82;;;2.92;;
43670;SDS011;29267;50.906;7.248;2023-04-26T06:33:56;6.30;;;2.05;;
43670;SDS011;29267;50.906;7.248;2023-04-26T06:36:22;6.07;;;2.80;;
43670;SDS011;29267;50.906;7.248;2023-04-26T06:38:48;5.72;;;2.70;;
43670;SDS011;29267;50.906;7.248;2023-04-26T06:41:13;6.30;;;2.60;;
43670;SDS011;29267;50.906;7.248;2023-04-26T06:46:07;7.85;;;2.42;;
43670;SDS011;29267;50.906;7.248;2023-04-26T06:48:33;7.28;;;2.97;;
43670;SDS011;29267;50.906;7.248;2023-04-26T06:51:01;5.00;;;2.30;;
43670;SDS011;29267;50.906;7.248;2023-04-26T06:53:29;9.18;;;3.00;;
43670;SDS011;29267;50.906;7.248;2023-04-26T06:55:55;6.93;;;2.60;;
43670;SDS011;29267;50.906;7.248;2023-04-26T06:58:22;9.05;;;2.90;;
43670;SDS011;29267;50.906;7.248;2023-04-26T07:00:47;6.25;;;3.10;;
43670;SDS011;29267;50.906;7.248;2023-04-26T07:03:13;7.18;;;3.17;;
43670;SDS011;29267;50.906;7.248;2023-04-26T07:05:39;5.50;;;3.13;;
43670;SDS011;29267;50.906;7.248;2023-04-26T07:08:05;6.07;;;2.97;;
43670;SDS011;29267;50.906;7.248;2023-04-26T07:10:30;10.88;;;3.40;;
43670;SDS011;29267;50.906;7.248;2023-04-26T07:12:56;13.13;;;4.35;;
43670;SDS011;29267;50.906;7.248;2023-04-26T07:15:22;9.68;;;4.30;;
43670;SDS011;29267;50.906;7.248;2023-04-26T07:17:47;8.63;;;3.72;;
43670;SDS011;29267;50.906;7.248;2023-04-26T07:20:13;9.50;;;3.88;;
43670;SDS011;29267;50.906;7.248;2023-04-26T07:22:43;9.00;;;3.60;;
43670;SDS011;29267;50.906;7.248;2023-04-26T07:25:09;9.50;;;3.55;;
43670;SDS011;29267;50.906;7.248;2023-04-26T07:27:35;11.52;;;4.63;;
43670;SDS011;29267;50.906;7.248;2023-04-26T07:30:00;12.35;;;4.82;;
43670;SDS011;29267;50.906;7.248;2023-04-26T07:32:26;10.43;;;4.95;;
43670;SDS011;29267;50.906;7.248;2023-04-26T07:34:52;11.55;;;4.72;;
43670;SDS011;29267;50.906;7.248;2023-04-26T07:37:18;8.02;;;4.25;;
43670;SDS011;29267;50.906;7.248;2023-04-26T07:39:43;7.05;;;4.32;;
43670;SDS011;29267;50.906;7.248;2023-04-26T07:42:09;15.23;;;5.38;;
43670;SDS011;29267;50.906;7.248;2023-04-26T07:44:34;9.88;;;5.43;;
43670;SDS011;29267;50.906;7.248;2023-04-26T07:47:00;14.50;;;5.30;;
43670;SDS011;29267;50.906;7.248;2023-04-26T07:49:26;15.18;;;5.30;;
43670;SDS011;29267;50.906;7.248;2023-04-26T07:51:51;12.27;;;5.30;;
43670;SDS011;29267;50.906;7.248;2023-04-26T07:54:17;11.68;;;4.22;;
43670;SDS011;29267;50.906;7.248;2023-04-26T07:56:42;14.75;;;5.40;;
43670;SDS011;29267;50.906;7.248;2023-04-26T07:59:08;10.25;;;3.95;;
43670;SDS011;29267;50.906;7.248;2023-04-26T08:01:33;10.15;;;3.30;;
43670;SDS011;29267;50.906;7.248;2023-04-26T08:03:59;9.32;;;3.55;;
43670;SDS011;29267;50.906;7.248;2023-04-26T08:06:25;9.30;;;3.35;;
43670;SDS011;29267;50.906;7.248;2023-04-26T08:08:51;12.05;;;4.22;;
43670;SDS011;29267;50.906;7.248;2023-04-26T08:11:17;50.20;;;18.60;;
43670;SDS011;29267;50.906;7.248;2023-04-26T08:13:43;38.05;;;14.60;;
43670;SDS011;29267;50.906;7.248;2023-04-26T08:16:09;18.90;;;7.97;;
43670;SDS011;29267;50.906;7.248;2023-04-26T08:18:34;13.48;;;5.15;;
43670;SDS011;29267;50.906;7.248;2023-04-26T08:21:00;24.13;;;11.65;;
43670;SDS011;29267;50.906;7.248;2023-04-26T08:23:26;10.20;;;4.93;;
43670;SDS011;29267;50.906;7.248;2023-04-26T08:25:52;11.45;;;5.75;;
43670;SDS011;29267;50.906;7.248;2023-04-26T08:28:18;14.05;;;5.22;;
43670;SDS011;29267;50.906;7.248;2023-04-26T08:30:43;15.90;;;5.43;;
43670;SDS011;29267;50.906;7.248;2023-04-26T08:33:09;13.70;;;5.00;;
43670;SDS011;29267;50.906;7.248;2023-04-26T08:35:35;11.40;;;4.45;;
43670;SDS011;29267;50.906;7.248;2023-04-26T08:38:00;8.07;;;5.30;;
43670;SDS011;29267;50.906;7.248;2023-04-26T08:40:26;20.02;;;5.70;;
43670;SDS011;29267;50.906;7.248;2023-04-26T08:42:52;10.95;;;5.07;;
43670;SDS011;29267;50.906;7.248;2023-04-26T08:45:18;15.52;;;6.05;;
43670;SDS011;29267;50.906;7.248;2023-04-26T08:47:48;12.20;;;5.65;;
43670;SDS011;29267;50.906;7.248;2023-04-26T08:50:20;15.93;;;4.82;;
43670;SDS011;29267;50.906;7.248;2023-04-26T08:52:47;13.15;;;4.95;;
43670;SDS011;29267;50.906;7.248;2023-04-26T08:55:15;16.13;;;4.95;;
43670;SDS011;29267;50.906;7.248;2023-04-26T08:57:42;21.23;;;5.22;;
43670;SDS011;29267;50.906;7.248;2023-04-26T09:00:11;17.88;;;6.63;;
43670;SDS011;29267;50.906;7.248;2023-04-26T09:02:43;13.20;;;5.22;;
43670;SDS011;29267;50.906;7.248;2023-04-26T09:05:11;9.53;;;5.07;;
43670;SDS011;29267;50.906;7.248;2023-04-26T09:07:41;7.60;;;3.90;;
43670;SDS011;29267;50.906;7.248;2023-04-26T09:10:08;8.43;;;4.13;;
43670;SDS011;29267;50.906;7.248;2023-04-26T09:12:36;6.57;;;4.18;;
43670;SDS011;29267;50.906;7.248;2023-04-26T09:15:02;8.43;;;5.28;;
43670;SDS011;29267;50.906;7.248;2023-04-26T09:17:32;11.95;;;5.97;;
43670;SDS011;29267;50.906;7.248;2023-04-26T09:20:21;11.02;;;4.57;;
43670;SDS011;29267;50.906;7.248;2023-04-26T09:23:04;12.07;;;4.65;;
43670;SDS011;29267;50.906;7.248;2023-04-26T09:25:31;9.63;;;4.25;;
43670;SDS011;29267;50.906;7.248;2023-04-26T09:27:57;8.10;;;4.03;;
43670;SDS011;29267;50.906;7.248;2023-04-26T09:30:23;7.75;;;4.15;;
43670;SDS011;29267;50.906;7.248;2023-04-26T09:32:54;6.93;;;2.85;;
43670;SDS011;29267;50.906;7.248;2023-04-26T09:35:33;6.32;;;3.90;;
43670;SDS011;29267;50.906;7.248;2023-04-26T09:38:00;6.88;;;2.35;;
43670;SDS011;29267;50.906;7.248;2023-04-26T09:40:32;4.10;;;1.70;;
43670;SDS011;29267;50.906;7.248;2023-04-26T09:43:03;6.78;;;2.38;;
43670;SDS011;29267;50.906;7.248;2023-04-26T09:45:31;7.57;;;3.15;;
43670;SDS011;29267;50.906;7.248;2023-04-26T09:50:41;9.15;;;3.08;;
43670;SDS011;29267;50.906;7.248;2023-04-26T09:53:12;10.07;;;3.10;;
43670;SDS011;29267;50.906;7.248;2023-04-26T09:56:07;7.45;;;3.20;;
43670;SDS011;29267;50.906;7.248;2023-04-26T09:58:34;7.05;;;3.05;;
43670;SDS011;29267;50.906;7.248;2023-04-26T10:01:01;10.30;;;3.78;;
43670;SDS011;29267;50.906;7.248;2023-04-26T10:03:28;8.13;;;3.22;;
43670;SDS011;29267;50.906;7.248;2023-04-26T10:05:55;8.63;;;3.67;;
43670;SDS011;29267;50.906;7.248;2023-04-26T10:08:21;10.05;;;3.47;;
43670;SDS011;29267;50.906;7.248;2023-04-26T10:10:47;5.35;;;2.88;;
43670;SDS011;29267;50.906;7.248;2023-04-26T10:13:14;4.32;;;2.90;;
43670;SDS011;29267;50.906;7.248;2023-04-26T10:15:40;11.88;;;3.13;;
43670;SDS011;29267;50.906;7.248;2023-04-26T10:18:07;7.55;;;3.47;;
43670;SDS011;29267;50.906;7.248;2023-04-26T10:20:32;7.10;;;3.42;;
43670;SDS011;29267;50.906;7.248;2023-04-26T10:23:00;4.95;;;2.40;;
43670;SDS011;29267;50.906;7.248;2023-04-26T10:25:37;6.85;;;3.05;;
43670;SDS011;29267;50.906;7.248;2023-04-26T10:28:05;7.40;;;2.92;;
43670;SDS011;29267;50.906;7.248;2023-04-26T10:30:31;7.25;;;3.35;;
43670;SDS011;29267;50.906;7.248;2023-04-26T10:35:23;9.38;;;2.70;;
43670;SDS011;29267;50.906;7.248;2023-04-26T10:40:29;4.75;;;2.60;;
43670;SDS011;29267;50.906;7.248;2023-04-26T10:45:38;7.22;;;2.72;;
43670;SDS011;29267;50.906;7.248;2023-04-26T10:48:20;9.13;;;3.00;;
43670;SDS011;29267;50.906;7.248;2023-04-26T10:53:30;13.77;;;3.63;;
43670;SDS011;29267;50.906;7.248;2023-04-26T10:55:56;13.52;;;4.78;;
43670;SDS011;29267;50.906;7.248;2023-04-26T11:01:07;12.35;;;3.88;;
43670;SDS011;29267;50.906;7.248;2023-04-26T11:03:35;9.85;;;3.20;;
43670;SDS011;29267;50.906;7.248;2023-04-26T11:06:05;5.38;;;2.90;;
43670;SDS011;29267;50.906;7.248;2023-04-26T11:08:33;7.53;;;2.83;;
43670;SDS011;29267;50.906;7.248;2023-04-26T11:13:32;5.63;;;2.60;;
43670;SDS011;29267;50.906;7.248;2023-04-26T11:16:07;7.35;;;4.20;;
43670;SDS011;29267;50.906;7.248;2023-04-26T11:18:34;5.05;;;2.65;;
43670;SDS011;29267;50.906;7.248;2023-04-26T11:21:03;5.00;;;2.90;;
43670;SDS011;29267;50.906;7.248;2023-04-26T11:23:29;12.15;;;3.30;;
43670;SDS011;29267;50.906;7.248;2023-04-26T11:25:56;10.55;;;3.35;;
43670;SDS011;29267;50.906;7.248;2023-04-26T11:28:29;7.70;;;3.42;;
43670;SDS011;29267;50.906;7.248;2023-04-26T11:30:55;13.13;;;4.85;;
43670;SDS011;29267;50.906;7.248;2023-04-26T11:33:22;8.18;;;3.00;;
43670;SDS011;29267;50.906;7.248;2023-04-26T11:35:48;4.95;;;2.72;;
43670;SDS011;29267;50.906;7.248;2023-04-26T11:38:15;6.13;;;3.08;;
43670;SDS011;29267;50.906;7.248;2023-04-26T11:40:41;7.07;;;2.63;;
43670;SDS011;29267;50.906;7.248;2023-04-26T11:43:07;5.80;;;2.65;;
43670;SDS011;29267;50.906;7.248;2023-04-26T11:45:34;5.88;;;3.42;;
43670;SDS011;29267;50.906;7.248;2023-04-26T11:48:01;8.43;;;2.80;;
43670;SDS011;29267;50.906;7.248;2023-04-26T11:50:29;12.65;;;3.67;;
43670;SDS011;29267;50.906;7.248;2023-04-26T11:52:56;6.80;;;2.53;;
43670;SDS011;29267;50.906;7.248;2023-04-26T11:55:28;6.43;;;2.60;;
43670;SDS011;29267;50.906;7.248;2023-04-26T11:57:56;11.77;;;3.33;;
43670;SDS011;29267;50.906;7.248;2023-04-26T12:00:22;11.10;;;4.20;;
43670;SDS011;29267;50.906;7.248;2023-04-26T12:02:49;10.85;;;5.10;;
43670;SDS011;29267;50.906;7.248;2023-04-26T12:07:48;6.47;;;2.63;;
43670;SDS011;29267;50.906;7.248;2023-04-26T12:10:17;8.50;;;3.45;;
43670;SDS011;29267;50.906;7.248;2023-04-26T12:12:46;7.50;;;2.78;;
43670;SDS011;29267;50.906;7.248;2023-04-26T12:15:13;11.30;;;2.88;;
43670;SDS011;29267;50.906;7.248;2023-04-26T12:17:39;4.35;;;2.22;;
43670;SDS011;29267;50.906;7.248;2023-04-26T12:20:11;8.02;;;3.20;;
43670;SDS011;29267;50.906;7.248;2023-04-26T12:22:37;7.65;;;3.00;;
43670;SDS011;29267;50.906;7.248;2023-04-26T12:25:06;7.70;;;2.97;;
43670;SDS011;29267;50.906;7.248;2023-04-26T12:27:32;6.10;;;2.88;;
43670;SDS011;29267;50.906;7.248;2023-04-26T12:29:57;7.35;;;3.25;;
43670;SDS011;29267;50.906;7.248;2023-04-26T12:32:23;7.63;;;2.55;;
43670;SDS011;29267;50.906;7.248;2023-04-26T12:34:49;7.88;;;2.78;;
43670;SDS011;29267;50.906;7.248;2023-04-26T12:37:15;9.60;;;3.55;;
43670;SDS011;29267;50.906;7.248;2023-04-26T12:39:40;12.15;;;3.97;;
43670;SDS011;29267;50.906;7.248;2023-04-26T12:42:07;4.53;;;2.25;;
43670;SDS011;29267;50.906;7.248;2023-04-26T12:44:33;4.53;;;2.08;;
43670;SDS011;29267;50.906;7.248;2023-04-26T12:46:58;7.88;;;2.25;;
43670;SDS011;29267;50.906;7.248;2023-04-26T12:49:24;6.13;;;2.60;;
43670;SDS011;29267;50.906;7.248;2023-04-26T12:51:50;7.47;;;2.35;;
43670;SDS011;29267;50.906;7.248;2023-04-26T12:54:15;4.13;;;2.13;;
43670;SDS011;29267;50.906;7.248;2023-04-26T12:56:41;10.85;;;3.10;;
43670;SDS011;29267;50.906;7.248;2023-04-26T12:59:08;4.53;;;2.25;;
43670;SDS011;29267;50.906;7.248;2023-04-26T13:01:34;12.50;;;2.53;;
43670;SDS011;29267;50.906;7.248;2023-04-26T13:04:00;6.72;;;3.28;;
43670;SDS011;29267;50.906;7.248;2023-04-26T13:06:28;7.93;;;2.33;;
43670;SDS011;29267;50.906;7.248;2023-04-26T13:08:54;5.72;;;2.38;;
43670;SDS011;29267;50.906;7.248;2023-04-26T13:11:19;6.43;;;2.50;;
43670;SDS011;29267;50.906;7.248;2023-04-26T13:13:46;6.50;;;2.47;;
43670;SDS011;29267;50.906;7.248;2023-04-26T13:16:13;9.32;;;3.22;;
43670;SDS011;29267;50.906;7.248;2023-04-26T13:18:39;6.22;;;2.25;;
43670;SDS011;29267;50.906;7.248;2023-04-26T13:21:05;9.82;;;3.15;;
43670;SDS011;29267;50.906;7.248;2023-04-26T13:23:31;7.20;;;1.95;;
43670;SDS011;29267;50.906;7.248;2023-04-26T13:25:57;5.60;;;2.17;;
43670;SDS011;29267;50.906;7.248;2023-04-26T13:28:22;6.65;;;2.92;;
43670;SDS011;29267;50.906;7.248;2023-04-26T13:30:48;6.05;;;2.78;;
43670;SDS011;29267;50.906;7.248;2023-04-26T13:33:13;7.97;;;2.83;;
43670;SDS011;29267;50.906;7.248;2023-04-26T13:35:39;4.63;;;2.70;;
43670;SDS011;29267;50.906;7.248;2023-04-26T13:38:05;9.93;;;2.88;;
43670;SDS011;29267;50.906;7.248;2023-04-26T13:40:30;17.85;;;6.82;;
43670;SDS011;29267;50.906;7.248;2023-04-26T13:42:56;7.63;;;2.80;;
43670;SDS011;29267;50.906;7.248;2023-04-26T13:45:21;8.30;;;2.50;;
43670;SDS011;29267;50.906;7.248;2023-04-26T13:47:47;6.20;;;2.83;;
43670;SDS011;29267;50.906;7.248;2023-04-26T13:50:13;11.20;;;2.20;;
43670;SDS011;29267;50.906;7.248;2023-04-26T13:52:38;5.00;;;2.22;;
43670;SDS011;29267;50.906;7.248;2023-04-26T13:55:04;5.28;;;2.45;;
43670;SDS011;29267;50.906;7.248;2023-04-26T13:57:30;5.00;;;3.10;;
43670;SDS011;29267;50.906;7.248;2023-04-26T13:59:56;6.13;;;2.22;;
43670;SDS011;29267;50.906;7.248;2023-04-26T14:02:21;3.53;;;2.00;;
43670;SDS011;29267;50.906;7.248;2023-04-26T14:04:48;11.95;;;2.80;;
43670;SDS011;29267;50.906;7.248;2023-04-26T14:07:13;7.55;;;2.15;;
43670;SDS011;29267;50.906;7.248;2023-04-26T14:09:39;7.38;;;2.70;;
43670;SDS011;29267;50.906;7.248;2023-04-26T14:12:05;5.78;;;2.25;;
43670;SDS011;29267;50.906;7.248;2023-04-26T14:14:31;11.32;;;2.47;;
43670;SDS011;29267;50.906;7.248;2023-04-26T14:16:56;9.95;;;2.40;;
43670;SDS011;29267;50.906;7.248;2023-04-26T14:19:22;5.45;;;2.10;;
43670;SDS011;29267;50.906;7.248;2023-04-26T14:21:47;6.22;;;1.88;;
43670;SDS011;29267;50.906;7.248;2023-04-26T14:24:13;4.47;;;2.10;;
43670;SDS011;29267;50.906;7.248;2023-04-26T14:26:38;5.03;;;2.20;;
43670;SDS011;29267;50.906;7.248;2023-04-26T14:29:04;12.05;;;2.78;;
43670;SDS011;29267;50.906;7.248;2023-04-26T14:31:30;5.90;;;2.22;;
43670;SDS011;29267;50.906;7.248;2023-04-26T14:33:56;4.53;;;2.35;;
43670;SDS011;29267;50.906;7.248;2023-04-26T14:36:22;6.78;;;2.60;;
43670;SDS011;29267;50.906;7.248;2023-04-26T14:38:47;8.82;;;3.30;;
43670;SDS011;29267;50.906;7.248;2023-04-26T14:41:14;7.15;;;2.95;;
43670;SDS011;29267;50.906;7.248;2023-04-26T14:43:40;8.30;;;3.63;;
43670;SDS011;29267;50.906;7.248;2023-04-26T14:46:06;12.18;;;2.78;;
43670;SDS011;29267;50.906;7.248;2023-04-26T14:48:32;7.22;;;2.60;;
43670;SDS011;29267;50.906;7.248;2023-04-26T14:50:58;7.03;;;3.10;;
43670;SDS011;29267;50.906;7.248;2023-04-26T14:53:24;12.70;;;2.70;;
43670;SDS011;29267;50.906;7.248;2023-04-26T14:55:56;9.40;;;2.72;;
43670;SDS011;29267;50.906;7.248;2023-04-26T14:58:22;7.78;;;2.42;;
43670;SDS011;29267;50.906;7.248;2023-04-26T15:00:48;3.75;;;2.15;;
43670;SDS011;29267;50.906;7.248;2023-04-26T15:03:15;3.85;;;2.20;;